sensor_id;sensor_type;location;lat;lon;timestamp;P1;durP1;ratioP1;P2;durP2;ratioP2
37309;SDS011;23195;47.744;7.358;2023-07-09T00:02:26;7.67;;;5.57;;
37309;SDS011;23195;47.744;7.358;2023-07-09T00:04:52;9.80;;;5.57;;
37309;SDS011;23195;47.744;7.358;2023-07-09T00:07:22;9.07;;;5.80;;
37309;SDS011;23195;47.744;7.358;2023-07-09T00:09:54;9.13;;;6.30;;
37309;SDS011;23195;47.744;7.358;2023-07-09T00:12:20;8.67;;;5.97;;
37309;SDS011;23195;47.744;7.358;2023-07-09T00:14:46;10.67;;;7.50;;
37309;SDS011;23195;47.744;7.358;2023-07-09T00:17:31;10.40;;;6.93;;
37309;SDS011;23195;47.744;7.358;2023-07-09T00:20:02;11.57;;;7.80;;
37309;SDS011;23195;47.744;7.358;2023-07-09T00:22:36;10.93;;;7.40;;
37309;SDS011;23195;47.744;7.358;2023-07-09T00:25:02;10.80;;;7.73;;
37309;SDS011;23195;47.744;7.358;2023-07-09T00:27:29;11.37;;;8.10;;
37309;SDS011;23195;47.744;7.358;2023-07-09T00:29:59;11.13;;;8.10;;
37309;SDS011;23195;47.744;7.358;2023-07-09T00:32:25;11.40;;;8.27;;
37309;SDS011;23195;47.744;7.358;2023-07-09T00:34:51;14.43;;;8.27;;
37309;SDS011;23195;47.744;7.358;2023-07-09T00:37:23;10.43;;;7.90;;
37309;SDS011;23195;47.744;7.358;2023-07-09T00:39:53;11.27;;;7.60;;
37309;SDS011;23195;47.744;7.358;2023-07-09T00:42:19;14.03;;;7.83;;
37309;SDS011;23195;47.744;7.358;2023-07-09T00:44:52;10.30;;;7.00;;
37309;SDS011;23195;47.744;7.358;2023-07-09T00:50:11;8.80;;;6.43;;
37309;SDS011;23195;47.744;7.358;2023-07-09T00:52:50;7.53;;;6.40;;
37309;SDS011;23195;47.744;7.358;2023-07-09T00:55:19;11.57;;;6.30;;
37309;SDS011;23195;47.744;7.358;2023-07-09T00:58:03;14.40;;;6.57;;
37309;SDS011;23195;47.744;7.358;2023-07-09T01:00:34;10.43;;;6.40;;
37309;SDS011;23195;47.744;7.358;2023-07-09T01:03:21;9.30;;;6.50;;
37309;SDS011;23195;47.744;7.358;2023-07-09T01:05:54;8.07;;;6.20;;
37309;SDS011;23195;47.744;7.358;2023-07-09T01:08:22;9.93;;;6.30;;
37309;SDS011;23195;47.744;7.358;2023-07-09T01:10:49;11.00;;;6.10;;
37309;SDS011;23195;47.744;7.358;2023-07-09T01:13:15;9.13;;;6.30;;
37309;SDS011;23195;47.744;7.358;2023-07-09T01:15:43;6.97;;;5.93;;
37309;SDS011;23195;47.744;7.358;2023-07-09T01:18:11;13.80;;;6.43;;
37309;SDS011;23195;47.744;7.358;2023-07-09T01:20:39;10.67;;;6.63;;
37309;SDS011;23195;47.744;7.358;2023-07-09T01:23:08;10.30;;;6.67;;
37309;SDS011;23195;47.744;7.358;2023-07-09T01:25:35;10.47;;;6.63;;
37309;SDS011;23195;47.744;7.358;2023-07-09T01:28:10;11.63;;;6.73;;
37309;SDS011;23195;47.744;7.358;2023-07-09T01:30:42;12.13;;;6.70;;
37309;SDS011;23195;47.744;7.358;2023-07-09T01:33:10;8.37;;;6.23;;
37309;SDS011;23195;47.744;7.358;2023-07-09T01:35:38;7.43;;;6.07;;
37309;SDS011;23195;47.744;7.358;2023-07-09T01:38:07;8.23;;;6.27;;
37309;SDS011;23195;47.744;7.358;2023-07-09T01:40:34;10.97;;;6.30;;
37309;SDS011;23195;47.744;7.358;2023-07-09T01:43:01;8.63;;;6.43;;
37309;SDS011;23195;47.744;7.358;2023-07-09T01:45:31;9.40;;;6.07;;
37309;SDS011;23195;47.744;7.358;2023-07-09T01:47:58;9.20;;;6.47;;
37309;SDS011;23195;47.744;7.358;2023-07-09T01:50:24;9.97;;;6.10;;
37309;SDS011;23195;47.744;7.358;2023-07-09T01:52:51;11.13;;;6.40;;
37309;SDS011;23195;47.744;7.358;2023-07-09T01:55:18;10.10;;;6.47;;
37309;SDS011;23195;47.744;7.358;2023-07-09T01:57:45;8.17;;;6.27;;
37309;SDS011;23195;47.744;7.358;2023-07-09T02:00:15;13.37;;;6.53;;
37309;SDS011;23195;47.744;7.358;2023-07-09T02:02:42;7.73;;;6.23;;
37309;SDS011;23195;47.744;7.358;2023-07-09T02:05:11;8.43;;;6.30;;
37309;SDS011;23195;47.744;7.358;2023-07-09T02:07:38;9.17;;;6.30;;
37309;SDS011;23195;47.744;7.358;2023-07-09T02:10:06;10.30;;;6.17;;
37309;SDS011;23195;47.744;7.358;2023-07-09T02:12:32;17.03;;;6.93;;
37309;SDS011;23195;47.744;7.358;2023-07-09T02:14:58;11.77;;;6.40;;
37309;SDS011;23195;47.744;7.358;2023-07-09T02:17:23;9.77;;;6.50;;
37309;SDS011;23195;47.744;7.358;2023-07-09T02:19:49;9.03;;;6.07;;
37309;SDS011;23195;47.744;7.358;2023-07-09T02:22:15;9.40;;;6.37;;
37309;SDS011;23195;47.744;7.358;2023-07-09T02:24:41;10.40;;;6.40;;
37309;SDS011;23195;47.744;7.358;2023-07-09T02:27:07;9.23;;;6.20;;
37309;SDS011;23195;47.744;7.358;2023-07-09T02:29:35;9.43;;;6.40;;
37309;SDS011;23195;47.744;7.358;2023-07-09T02:32:01;8.70;;;6.50;;
37309;SDS011;23195;47.744;7.358;2023-07-09T02:34:28;8.37;;;6.10;;
37309;SDS011;23195;47.744;7.358;2023-07-09T02:36:55;9.97;;;6.50;;
37309;SDS011;23195;47.744;7.358;2023-07-09T02:39:22;8.77;;;6.17;;
37309;SDS011;23195;47.744;7.358;2023-07-09T02:41:49;11.30;;;6.50;;
37309;SDS011;23195;47.744;7.358;2023-07-09T02:44:15;11.67;;;6.20;;
37309;SDS011;23195;47.744;7.358;2023-07-09T02:46:42;8.20;;;5.90;;
37309;SDS011;23195;47.744;7.358;2023-07-09T02:49:08;8.73;;;6.23;;
37309;SDS011;23195;47.744;7.358;2023-07-09T02:51:36;8.47;;;5.70;;
37309;SDS011;23195;47.744;7.358;2023-07-09T02:54:02;8.17;;;6.40;;
37309;SDS011;23195;47.744;7.358;2023-07-09T02:56:32;10.83;;;6.27;;
37309;SDS011;23195;47.744;7.358;2023-07-09T02:58:58;12.73;;;6.43;;
37309;SDS011;23195;47.744;7.358;2023-07-09T03:01:23;6.70;;;5.73;;
37309;SDS011;23195;47.744;7.358;2023-07-09T03:03:54;8.77;;;6.13;;
37309;SDS011;23195;47.744;7.358;2023-07-09T03:06:24;8.93;;;5.77;;
37309;SDS011;23195;47.744;7.358;2023-07-09T03:08:51;9.33;;;6.03;;
37309;SDS011;23195;47.744;7.358;2023-07-09T03:11:17;9.80;;;6.27;;
37309;SDS011;23195;47.744;7.358;2023-07-09T03:13:44;10.30;;;6.50;;
37309;SDS011;23195;47.744;7.358;2023-07-09T03:16:10;9.93;;;6.37;;
37309;SDS011;23195;47.744;7.358;2023-07-09T03:18:36;11.03;;;6.37;;
37309;SDS011;23195;47.744;7.358;2023-07-09T03:21:02;7.77;;;6.63;;
37309;SDS011;23195;47.744;7.358;2023-07-09T03:23:28;10.00;;;6.20;;
37309;SDS011;23195;47.744;7.358;2023-07-09T03:25:54;8.40;;;6.00;;
37309;SDS011;23195;47.744;7.358;2023-07-09T03:28:20;9.50;;;6.40;;
37309;SDS011;23195;47.744;7.358;2023-07-09T03:30:46;9.03;;;6.67;;
37309;SDS011;23195;47.744;7.358;2023-07-09T03:33:18;10.97;;;6.37;;
37309;SDS011;23195;47.744;7.358;2023-07-09T03:35:44;12.23;;;6.83;;
37309;SDS011;23195;47.744;7.358;2023-07-09T03:38:10;9.47;;;6.60;;
37309;SDS011;23195;47.744;7.358;2023-07-09T03:40:36;9.17;;;6.40;;
37309;SDS011;23195;47.744;7.358;2023-07-09T03:43:03;9.97;;;6.33;;
37309;SDS011;23195;47.744;7.358;2023-07-09T03:45:30;8.23;;;5.93;;
37309;SDS011;23195;47.744;7.358;2023-07-09T03:47:57;9.70;;;6.27;;
37309;SDS011;23195;47.744;7.358;2023-07-09T03:50:22;9.03;;;6.30;;
37309;SDS011;23195;47.744;7.358;2023-07-09T03:52:48;10.60;;;6.33;;
37309;SDS011;23195;47.744;7.358;2023-07-09T03:55:14;8.53;;;5.90;;
37309;SDS011;23195;47.744;7.358;2023-07-09T03:57:40;9.67;;;6.10;;
37309;SDS011;23195;47.744;7.358;2023-07-09T04:00:08;8.27;;;5.70;;
37309;SDS011;23195;47.744;7.358;2023-07-09T04:02:36;7.33;;;5.53;;
37309;SDS011;23195;47.744;7.358;2023-07-09T04:05:03;8.20;;;6.10;;
37309;SDS011;23195;47.744;7.358;2023-07-09T04:07:29;9.57;;;6.27;;
37309;SDS011;23195;47.744;7.358;2023-07-09T04:09:54;8.00;;;5.60;;
37309;SDS011;23195;47.744;7.358;2023-07-09T04:12:20;7.60;;;5.43;;
37309;SDS011;23195;47.744;7.358;2023-07-09T04:14:46;13.43;;;6.17;;
37309;SDS011;23195;47.744;7.358;2023-07-09T04:17:12;8.03;;;5.90;;
37309;SDS011;23195;47.744;7.358;2023-07-09T04:19:37;9.27;;;5.77;;
37309;SDS011;23195;47.744;7.358;2023-07-09T04:22:03;8.90;;;5.40;;
37309;SDS011;23195;47.744;7.358;2023-07-09T04:24:30;8.30;;;5.90;;
37309;SDS011;23195;47.744;7.358;2023-07-09T04:26:58;11.20;;;5.10;;
37309;SDS011;23195;47.744;7.358;2023-07-09T04:29:28;6.83;;;4.80;;
37309;SDS011;23195;47.744;7.358;2023-07-09T04:31:55;6.87;;;4.77;;
37309;SDS011;23195;47.744;7.358;2023-07-09T04:34:21;5.10;;;4.60;;
37309;SDS011;23195;47.744;7.358;2023-07-09T04:36:47;7.93;;;4.50;;
37309;SDS011;23195;47.744;7.358;2023-07-09T04:39:13;7.70;;;4.60;;
37309;SDS011;23195;47.744;7.358;2023-07-09T04:41:40;10.40;;;5.00;;
37309;SDS011;23195;47.744;7.358;2023-07-09T04:44:06;8.67;;;4.83;;
37309;SDS011;23195;47.744;7.358;2023-07-09T04:46:31;5.80;;;3.97;;
37309;SDS011;23195;47.744;7.358;2023-07-09T04:48:57;8.00;;;4.93;;
37309;SDS011;23195;47.744;7.358;2023-07-09T04:51:26;5.27;;;4.30;;
37309;SDS011;23195;47.744;7.358;2023-07-09T04:53:52;8.50;;;4.53;;
37309;SDS011;23195;47.744;7.358;2023-07-09T04:56:18;5.67;;;4.13;;
37309;SDS011;23195;47.744;7.358;2023-07-09T04:58:44;10.53;;;3.83;;
37309;SDS011;23195;47.744;7.358;2023-07-09T05:01:10;5.57;;;4.83;;
37309;SDS011;23195;47.744;7.358;2023-07-09T05:03:36;6.00;;;4.23;;
37309;SDS011;23195;47.744;7.358;2023-07-09T05:06:02;7.90;;;4.50;;
37309;SDS011;23195;47.744;7.358;2023-07-09T05:08:28;9.27;;;4.43;;
37309;SDS011;23195;47.744;7.358;2023-07-09T05:10:56;7.63;;;4.23;;
37309;SDS011;23195;47.744;7.358;2023-07-09T05:13:22;4.87;;;4.23;;
37309;SDS011;23195;47.744;7.358;2023-07-09T05:15:49;8.60;;;4.57;;
37309;SDS011;23195;47.744;7.358;2023-07-09T05:18:15;5.63;;;4.13;;
37309;SDS011;23195;47.744;7.358;2023-07-09T05:20:42;8.30;;;4.40;;
37309;SDS011;23195;47.744;7.358;2023-07-09T05:23:08;9.23;;;4.47;;
37309;SDS011;23195;47.744;7.358;2023-07-09T05:25:35;5.40;;;4.77;;
37309;SDS011;23195;47.744;7.358;2023-07-09T05:28:01;6.13;;;4.50;;
37309;SDS011;23195;47.744;7.358;2023-07-09T05:30:27;5.37;;;4.87;;
37309;SDS011;23195;47.744;7.358;2023-07-09T05:32:53;8.50;;;4.88;;
37309;SDS011;23195;47.744;7.358;2023-07-09T05:35:22;7.63;;;4.22;;
37309;SDS011;23195;47.744;7.358;2023-07-09T05:37:55;6.35;;;4.53;;
37309;SDS011;23195;47.744;7.358;2023-07-09T05:40:21;6.97;;;4.50;;
37309;SDS011;23195;47.744;7.358;2023-07-09T05:42:50;7.22;;;4.47;;
37309;SDS011;23195;47.744;7.358;2023-07-09T05:45:19;9.23;;;4.75;;
37309;SDS011;23195;47.744;7.358;2023-07-09T05:47:44;7.85;;;4.47;;
37309;SDS011;23195;47.744;7.358;2023-07-09T05:50:21;6.03;;;4.30;;
37309;SDS011;23195;47.744;7.358;2023-07-09T05:52:59;4.75;;;3.90;;
37309;SDS011;23195;47.744;7.358;2023-07-09T05:55:58;7.18;;;3.92;;
37309;SDS011;23195;47.744;7.358;2023-07-09T05:58:29;6.03;;;3.88;;
37309;SDS011;23195;47.744;7.358;2023-07-09T06:00:55;6.32;;;3.83;;
37309;SDS011;23195;47.744;7.358;2023-07-09T06:03:40;4.63;;;3.47;;
37309;SDS011;23195;47.744;7.358;2023-07-09T06:06:26;6.65;;;3.78;;
37309;SDS011;23195;47.744;7.358;2023-07-09T06:08:56;6.90;;;3.95;;
37309;SDS011;23195;47.744;7.358;2023-07-09T06:11:22;5.57;;;3.55;;
37309;SDS011;23195;47.744;7.358;2023-07-09T06:13:49;5.18;;;4.10;;
37309;SDS011;23195;47.744;7.358;2023-07-09T06:16:15;5.45;;;3.60;;
37309;SDS011;23195;47.744;7.358;2023-07-09T06:18:41;4.43;;;4.03;;
37309;SDS011;23195;47.744;7.358;2023-07-09T06:21:07;7.93;;;3.65;;
37309;SDS011;23195;47.744;7.358;2023-07-09T06:23:34;5.97;;;3.75;;
37309;SDS011;23195;47.744;7.358;2023-07-09T06:26:02;6.57;;;4.10;;
37309;SDS011;23195;47.744;7.358;2023-07-09T06:28:28;5.60;;;4.28;;
37309;SDS011;23195;47.744;7.358;2023-07-09T06:30:56;5.72;;;3.70;;
37309;SDS011;23195;47.744;7.358;2023-07-09T06:33:22;4.97;;;3.65;;
37309;SDS011;23195;47.744;7.358;2023-07-09T06:35:53;6.10;;;3.60;;
37309;SDS011;23195;47.744;7.358;2023-07-09T06:38:21;12.13;;;4.10;;
37309;SDS011;23195;47.744;7.358;2023-07-09T06:40:47;8.60;;;3.78;;
37309;SDS011;23195;47.744;7.358;2023-07-09T06:43:16;5.22;;;3.80;;
37309;SDS011;23195;47.744;7.358;2023-07-09T06:48:36;4.50;;;3.67;;
37309;SDS011;23195;47.744;7.358;2023-07-09T06:51:09;4.75;;;4.13;;
37309;SDS011;23195;47.744;7.358;2023-07-09T06:53:41;4.15;;;3.28;;
37309;SDS011;23195;47.744;7.358;2023-07-09T06:56:09;8.00;;;4.15;;
37309;SDS011;23195;47.744;7.358;2023-07-09T06:58:35;5.28;;;3.80;;
37309;SDS011;23195;47.744;7.358;2023-07-09T07:01:06;5.05;;;3.55;;
37309;SDS011;23195;47.744;7.358;2023-07-09T07:03:36;5.07;;;3.85;;
37309;SDS011;23195;47.744;7.358;2023-07-09T07:06:10;8.00;;;3.80;;
37309;SDS011;23195;47.744;7.358;2023-07-09T07:08:39;5.03;;;3.70;;
37309;SDS011;23195;47.744;7.358;2023-07-09T07:11:07;7.03;;;3.75;;
37309;SDS011;23195;47.744;7.358;2023-07-09T07:13:37;4.75;;;4.00;;
37309;SDS011;23195;47.744;7.358;2023-07-09T07:16:06;5.70;;;3.67;;
37309;SDS011;23195;47.744;7.358;2023-07-09T07:18:36;9.75;;;3.60;;
37309;SDS011;23195;47.744;7.358;2023-07-09T07:21:02;6.25;;;3.88;;
37309;SDS011;23195;47.744;7.358;2023-07-09T07:23:32;4.55;;;3.88;;
37309;SDS011;23195;47.744;7.358;2023-07-09T07:26:01;5.57;;;3.90;;
37309;SDS011;23195;47.744;7.358;2023-07-09T07:28:26;4.50;;;3.75;;
37309;SDS011;23195;47.744;7.358;2023-07-09T07:31:02;4.45;;;3.55;;
37309;SDS011;23195;47.744;7.358;2023-07-09T07:33:35;4.55;;;3.75;;
37309;SDS011;23195;47.744;7.358;2023-07-09T07:36:08;7.80;;;3.80;;
37309;SDS011;23195;47.744;7.358;2023-07-09T07:38:37;5.53;;;3.72;;
37309;SDS011;23195;47.744;7.358;2023-07-09T07:41:08;6.35;;;3.95;;
37309;SDS011;23195;47.744;7.358;2023-07-09T07:43:37;5.20;;;3.80;;
37309;SDS011;23195;47.744;7.358;2023-07-09T07:46:23;5.05;;;3.67;;
37309;SDS011;23195;47.744;7.358;2023-07-09T07:48:58;8.15;;;4.05;;
37309;SDS011;23195;47.744;7.358;2023-07-09T07:51:26;7.40;;;3.95;;
37309;SDS011;23195;47.744;7.358;2023-07-09T07:53:53;6.72;;;3.85;;
37309;SDS011;23195;47.744;7.358;2023-07-09T07:56:18;4.95;;;3.72;;
37309;SDS011;23195;47.744;7.358;2023-07-09T07:58:56;6.32;;;3.78;;
37309;SDS011;23195;47.744;7.358;2023-07-09T08:01:26;4.78;;;3.80;;
37309;SDS011;23195;47.744;7.358;2023-07-09T08:04:00;7.13;;;3.63;;
37309;SDS011;23195;47.744;7.358;2023-07-09T08:06:30;6.70;;;3.78;;
37309;SDS011;23195;47.744;7.358;2023-07-09T08:08:56;5.65;;;3.70;;
37309;SDS011;23195;47.744;7.358;2023-07-09T08:11:27;6.97;;;3.88;;
37309;SDS011;23195;47.744;7.358;2023-07-09T08:14:00;7.43;;;3.67;;
37309;SDS011;23195;47.744;7.358;2023-07-09T08:16:29;4.47;;;4.03;;
37309;SDS011;23195;47.744;7.358;2023-07-09T08:18:59;6.50;;;3.40;;
37309;SDS011;23195;47.744;7.358;2023-07-09T08:21:31;4.55;;;3.70;;
37309;SDS011;23195;47.744;7.358;2023-07-09T08:23:57;6.22;;;3.83;;
37309;SDS011;23195;47.744;7.358;2023-07-09T08:26:25;7.25;;;3.85;;
37309;SDS011;23195;47.744;7.358;2023-07-09T08:28:51;6.13;;;3.97;;
37309;SDS011;23195;47.744;7.358;2023-07-09T08:31:28;6.05;;;3.75;;
37309;SDS011;23195;47.744;7.358;2023-07-09T08:33:56;8.45;;;3.58;;
37309;SDS011;23195;47.744;7.358;2023-07-09T08:36:23;4.38;;;3.53;;
37309;SDS011;23195;47.744;7.358;2023-07-09T08:39:00;6.53;;;3.65;;
37309;SDS011;23195;47.744;7.358;2023-07-09T08:41:39;4.82;;;3.50;;
37309;SDS011;23195;47.744;7.358;2023-07-09T08:47:43;5.03;;;4.03;;
37309;SDS011;23195;47.744;7.358;2023-07-09T08:50:47;8.48;;;4.20;;
37309;SDS011;23195;47.744;7.358;2023-07-09T08:53:42;4.72;;;4.07;;
37309;SDS011;23195;47.744;7.358;2023-07-09T08:56:25;6.45;;;3.80;;
37309;SDS011;23195;47.744;7.358;2023-07-09T08:58:54;7.10;;;4.20;;
37309;SDS011;23195;47.744;7.358;2023-07-09T09:01:36;4.15;;;3.75;;
37309;SDS011;23195;47.744;7.358;2023-07-09T09:10:10;5.38;;;4.00;;
37309;SDS011;23195;47.744;7.358;2023-07-09T09:16:21;5.43;;;3.80;;
37309;SDS011;23195;47.744;7.358;2023-07-09T09:19:27;7.35;;;4.43;;
37309;SDS011;23195;47.744;7.358;2023-07-09T09:22:13;7.55;;;3.97;;
37309;SDS011;23195;47.744;7.358;2023-07-09T09:25:56;5.45;;;4.10;;
37309;SDS011;23195;47.744;7.358;2023-07-09T09:28:17;7.10;;;4.18;;
37309;SDS011;23195;47.744;7.358;2023-07-09T09:30:47;5.75;;;4.00;;
37309;SDS011;23195;47.744;7.358;2023-07-09T09:33:26;4.75;;;3.58;;
37309;SDS011;23195;47.744;7.358;2023-07-09T09:36:20;5.95;;;4.25;;
37309;SDS011;23195;47.744;7.358;2023-07-09T09:39:01;5.55;;;4.28;;
37309;SDS011;23195;47.744;7.358;2023-07-09T09:42:00;4.95;;;3.97;;
37309;SDS011;23195;47.744;7.358;2023-07-09T09:44:32;4.85;;;3.78;;
37309;SDS011;23195;47.744;7.358;2023-07-09T09:51:11;5.32;;;4.32;;
37309;SDS011;23195;47.744;7.358;2023-07-09T10:00:52;4.68;;;3.97;;
37309;SDS011;23195;47.744;7.358;2023-07-09T10:04:18;5.03;;;4.13;;
37309;SDS011;23195;47.744;7.358;2023-07-09T10:07:01;7.10;;;4.33;;
37309;SDS011;23195;47.744;7.358;2023-07-09T10:09:58;9.33;;;4.70;;
37309;SDS011;23195;47.744;7.358;2023-07-09T10:13:05;6.90;;;4.60;;
37309;SDS011;23195;47.744;7.358;2023-07-09T10:16:00;8.43;;;4.93;;
37309;SDS011;23195;47.744;7.358;2023-07-09T10:18:59;5.93;;;4.30;;
37309;SDS011;23195;47.744;7.358;2023-07-09T10:28:30;8.27;;;4.00;;
37309;SDS011;23195;47.744;7.358;2023-07-09T10:31:55;7.17;;;4.87;;
37309;SDS011;23195;47.744;7.358;2023-07-09T10:51:10;6.17;;;3.97;;
37309;SDS011;23195;47.744;7.358;2023-07-09T10:57:30;7.30;;;4.20;;
37309;SDS011;23195;47.744;7.358;2023-07-09T11:04:08;5.63;;;4.23;;
37309;SDS011;23195;47.744;7.358;2023-07-09T11:07:11;8.80;;;4.50;;
37309;SDS011;23195;47.744;7.358;2023-07-09T11:16:45;5.70;;;3.80;;
37309;SDS011;23195;47.744;7.358;2023-07-09T11:20:08;7.00;;;4.13;;
37309;SDS011;23195;47.744;7.358;2023-07-09T11:26:46;4.47;;;3.93;;
37309;SDS011;23195;47.744;7.358;2023-07-09T11:29:25;12.60;;;7.93;;
37309;SDS011;23195;47.744;7.358;2023-07-09T11:32:22;6.87;;;4.53;;
37309;SDS011;23195;47.744;7.358;2023-07-09T11:35:08;8.10;;;3.80;;
37309;SDS011;23195;47.744;7.358;2023-07-09T11:37:51;8.77;;;4.20;;
37309;SDS011;23195;47.744;7.358;2023-07-09T11:41:22;6.57;;;3.77;;
37309;SDS011;23195;47.744;7.358;2023-07-09T11:44:10;8.47;;;3.47;;
37309;SDS011;23195;47.744;7.358;2023-07-09T11:46:43;7.30;;;3.40;;
37309;SDS011;23195;47.744;7.358;2023-07-09T11:49:46;8.20;;;3.53;;
37309;SDS011;23195;47.744;7.358;2023-07-09T11:55:45;6.97;;;3.70;;
37309;SDS011;23195;47.744;7.358;2023-07-09T11:58:52;5.13;;;3.00;;
37309;SDS011;23195;47.744;7.358;2023-07-09T12:01:50;7.10;;;3.53;;
37309;SDS011;23195;47.744;7.358;2023-07-09T12:04:36;5.73;;;3.27;;
37309;SDS011;23195;47.744;7.358;2023-07-09T12:07:20;6.33;;;3.10;;
37309;SDS011;23195;47.744;7.358;2023-07-09T12:10:33;5.30;;;2.73;;
37309;SDS011;23195;47.744;7.358;2023-07-09T12:13:04;4.87;;;2.73;;
37309;SDS011;23195;47.744;7.358;2023-07-09T12:15:43;7.67;;;2.90;;
37309;SDS011;23195;47.744;7.358;2023-07-09T12:18:19;8.67;;;3.30;;
37309;SDS011;23195;47.744;7.358;2023-07-09T12:24:39;4.77;;;3.10;;
37309;SDS011;23195;47.744;7.358;2023-07-09T12:30:23;7.87;;;3.80;;
37309;SDS011;23195;47.744;7.358;2023-07-09T12:33:07;9.73;;;3.80;;
37309;SDS011;23195;47.744;7.358;2023-07-09T12:36:05;8.23;;;3.40;;
37309;SDS011;23195;47.744;7.358;2023-07-09T12:39:10;5.27;;;3.50;;
37309;SDS011;23195;47.744;7.358;2023-07-09T12:42:30;10.73;;;4.53;;
37309;SDS011;23195;47.744;7.358;2023-07-09T12:45:16;4.83;;;3.30;;
37309;SDS011;23195;47.744;7.358;2023-07-09T12:50:50;5.87;;;3.40;;
37309;SDS011;23195;47.744;7.358;2023-07-09T12:53:44;6.93;;;3.27;;
37309;SDS011;23195;47.744;7.358;2023-07-09T12:56:30;4.67;;;2.97;;
37309;SDS011;23195;47.744;7.358;2023-07-09T13:09:19;6.73;;;3.93;;
37309;SDS011;23195;47.744;7.358;2023-07-09T13:12:16;5.80;;;3.70;;
37309;SDS011;23195;47.744;7.358;2023-07-09T13:15:23;6.10;;;3.57;;
37309;SDS011;23195;47.744;7.358;2023-07-09T13:21:17;7.00;;;3.93;;
37309;SDS011;23195;47.744;7.358;2023-07-09T13:23:54;7.10;;;3.90;;
37309;SDS011;23195;47.744;7.358;2023-07-09T13:26:25;7.40;;;3.37;;
37309;SDS011;23195;47.744;7.358;2023-07-09T13:29:04;6.67;;;3.87;;
37309;SDS011;23195;47.744;7.358;2023-07-09T13:31:47;6.50;;;3.83;;
37309;SDS011;23195;47.744;7.358;2023-07-09T13:37:35;9.77;;;3.93;;
37309;SDS011;23195;47.744;7.358;2023-07-09T13:40:21;4.87;;;3.93;;
37309;SDS011;23195;47.744;7.358;2023-07-09T13:46:06;7.83;;;3.90;;
37309;SDS011;23195;47.744;7.358;2023-07-09T13:48:59;8.40;;;3.70;;
37309;SDS011;23195;47.744;7.358;2023-07-09T13:51:33;7.67;;;4.00;;
37309;SDS011;23195;47.744;7.358;2023-07-09T13:54:42;9.37;;;4.13;;
37309;SDS011;23195;47.744;7.358;2023-07-09T13:57:21;6.87;;;3.87;;
37309;SDS011;23195;47.744;7.358;2023-07-09T14:03:34;7.73;;;3.80;;
37309;SDS011;23195;47.744;7.358;2023-07-09T14:06:20;5.87;;;4.37;;
37309;SDS011;23195;47.744;7.358;2023-07-09T14:08:51;5.57;;;3.90;;
37309;SDS011;23195;47.744;7.358;2023-07-09T14:12:04;6.83;;;3.97;;
37309;SDS011;23195;47.744;7.358;2023-07-09T14:14:31;6.63;;;4.23;;
37309;SDS011;23195;47.744;7.358;2023-07-09T14:20:27;8.70;;;4.03;;
37309;SDS011;23195;47.744;7.358;2023-07-09T14:28:56;7.77;;;3.53;;
37309;SDS011;23195;47.744;7.358;2023-07-09T14:31:32;5.57;;;3.57;;
37309;SDS011;23195;47.744;7.358;2023-07-09T14:35:00;5.93;;;3.87;;
37309;SDS011;23195;47.744;7.358;2023-07-09T14:44:57;7.63;;;3.90;;
37309;SDS011;23195;47.744;7.358;2023-07-09T14:47:44;11.30;;;4.10;;
37309;SDS011;23195;47.744;7.358;2023-07-09T14:50:47;8.40;;;3.90;;
37309;SDS011;23195;47.744;7.358;2023-07-09T15:00:30;7.50;;;3.50;;
37309;SDS011;23195;47.744;7.358;2023-07-09T15:03:18;8.63;;;3.97;;
37309;SDS011;23195;47.744;7.358;2023-07-09T15:12:41;5.67;;;3.87;;
37309;SDS011;23195;47.744;7.358;2023-07-09T15:18:45;7.77;;;4.43;;
37309;SDS011;23195;47.744;7.358;2023-07-09T15:21:11;10.20;;;4.40;;
37309;SDS011;23195;47.744;7.358;2023-07-09T15:24:17;6.57;;;3.73;;
37309;SDS011;23195;47.744;7.358;2023-07-09T15:30:16;7.80;;;4.28;;
37309;SDS011;23195;47.744;7.358;2023-07-09T15:33:15;8.23;;;4.03;;
37309;SDS011;23195;47.744;7.358;2023-07-09T15:35:57;6.87;;;5.03;;
37309;SDS011;23195;47.744;7.358;2023-07-09T15:40:58;5.85;;;4.57;;
37309;SDS011;23195;47.744;7.358;2023-07-09T15:43:26;6.73;;;4.17;;
37309;SDS011;23195;47.744;7.358;2023-07-09T15:46:22;6.63;;;4.15;;
37309;SDS011;23195;47.744;7.358;2023-07-09T15:49:30;6.97;;;4.37;;
37309;SDS011;23195;47.744;7.358;2023-07-09T15:55:33;7.87;;;4.27;;
37309;SDS011;23195;47.744;7.358;2023-07-09T15:58:26;8.37;;;4.37;;
37309;SDS011;23195;47.744;7.358;2023-07-09T16:01:27;8.57;;;4.40;;
37309;SDS011;23195;47.744;7.358;2023-07-09T16:04:18;6.03;;;4.23;;
37309;SDS011;23195;47.744;7.358;2023-07-09T16:07:26;7.07;;;4.20;;
37309;SDS011;23195;47.744;7.358;2023-07-09T16:10:05;8.27;;;4.20;;
37309;SDS011;23195;47.744;7.358;2023-07-09T16:12:47;8.47;;;4.80;;
37309;SDS011;23195;47.744;7.358;2023-07-09T16:15:58;9.20;;;4.13;;
37309;SDS011;23195;47.744;7.358;2023-07-09T16:18:44;6.27;;;4.10;;
37309;SDS011;23195;47.744;7.358;2023-07-09T16:21:29;5.88;;;3.92;;
37309;SDS011;23195;47.744;7.358;2023-07-09T16:24:24;6.17;;;4.20;;
37309;SDS011;23195;47.744;7.358;2023-07-09T16:27:05;7.05;;;4.05;;
37309;SDS011;23195;47.744;7.358;2023-07-09T16:33:06;9.63;;;4.10;;
37309;SDS011;23195;47.744;7.358;2023-07-09T16:35:36;9.63;;;4.03;;
37309;SDS011;23195;47.744;7.358;2023-07-09T16:38:25;11.70;;;4.07;;
37309;SDS011;23195;47.744;7.358;2023-07-09T16:41:01;6.63;;;3.60;;
37309;SDS011;23195;47.744;7.358;2023-07-09T16:43:37;10.13;;;3.90;;
37309;SDS011;23195;47.744;7.358;2023-07-09T16:46:15;9.57;;;3.87;;
37309;SDS011;23195;47.744;7.358;2023-07-09T16:52:36;8.70;;;4.60;;
37309;SDS011;23195;47.744;7.358;2023-07-09T16:58:39;10.27;;;4.73;;
37309;SDS011;23195;47.744;7.358;2023-07-09T17:01:21;10.57;;;4.40;;
37309;SDS011;23195;47.744;7.358;2023-07-09T17:04:21;7.00;;;4.57;;
37309;SDS011;23195;47.744;7.358;2023-07-09T17:07:24;7.13;;;3.80;;
37309;SDS011;23195;47.744;7.358;2023-07-09T17:09:55;8.17;;;3.67;;
37309;SDS011;23195;47.744;7.358;2023-07-09T17:12:25;6.17;;;3.50;;
37309;SDS011;23195;47.744;7.358;2023-07-09T17:14:54;6.63;;;3.53;;
37309;SDS011;23195;47.744;7.358;2023-07-09T17:17:51;7.30;;;4.00;;
37309;SDS011;23195;47.744;7.358;2023-07-09T17:20:34;10.67;;;3.90;;
37309;SDS011;23195;47.744;7.358;2023-07-09T17:23:23;8.50;;;3.90;;
37309;SDS011;23195;47.744;7.358;2023-07-09T17:29:21;6.60;;;4.10;;
37309;SDS011;23195;47.744;7.358;2023-07-09T17:32:00;7.50;;;4.27;;
37309;SDS011;23195;47.744;7.358;2023-07-09T17:34:45;6.70;;;3.93;;
37309;SDS011;23195;47.744;7.358;2023-07-09T17:37:24;12.77;;;3.97;;
37309;SDS011;23195;47.744;7.358;2023-07-09T17:40:20;11.20;;;4.13;;
37309;SDS011;23195;47.744;7.358;2023-07-09T17:43:12;6.80;;;4.00;;
37309;SDS011;23195;47.744;7.358;2023-07-09T17:46:07;6.10;;;3.73;;
37309;SDS011;23195;47.744;7.358;2023-07-09T17:48:56;8.83;;;4.60;;
37309;SDS011;23195;47.744;7.358;2023-07-09T17:51:40;9.50;;;4.57;;
37309;SDS011;23195;47.744;7.358;2023-07-09T17:54:22;7.27;;;3.30;;
37309;SDS011;23195;47.744;7.358;2023-07-09T17:57:08;9.53;;;3.77;;
37309;SDS011;23195;47.744;7.358;2023-07-09T18:00:26;7.67;;;3.70;;
37309;SDS011;23195;47.744;7.358;2023-07-09T18:03:20;6.37;;;3.70;;
37309;SDS011;23195;47.744;7.358;2023-07-09T18:05:47;7.23;;;3.63;;
37309;SDS011;23195;47.744;7.358;2023-07-09T18:08:19;5.43;;;3.63;;
37309;SDS011;23195;47.744;7.358;2023-07-09T18:11:02;8.10;;;3.70;;
37309;SDS011;23195;47.744;7.358;2023-07-09T18:13:56;11.30;;;3.60;;
37309;SDS011;23195;47.744;7.358;2023-07-09T18:16:38;6.83;;;3.60;;
37309;SDS011;23195;47.744;7.358;2023-07-09T18:19:49;11.30;;;3.40;;
37309;SDS011;23195;47.744;7.358;2023-07-09T18:22:25;9.73;;;3.90;;
37309;SDS011;23195;47.744;7.358;2023-07-09T18:25:27;9.63;;;4.10;;
37309;SDS011;23195;47.744;7.358;2023-07-09T18:28:33;7.23;;;3.97;;